Main page
METAR-TAF:

METAR-TAF

Airports :

Ohrid "St. Paul the Apostle" Airport

Ohrid, Macedonia

latitude: 41-07N, longitude: 020-48E, elevation: 760 m

Current weather observation

The report was made 23 minutes ago, at 09:30 UTC
Wind 2 kt from the West
Temperature 5°C
Humidity 81%
Pressure 1017 hPa
Visibility 10 km or more
Scattered clouds at a height of 4000 ft

METAR: LWOH 190930Z 26002KT 9999 SCT040 05/02 Q1017

Time: 10:53 (09:53 UTC)

Forecast

The report was made 4 hours and 23 minutes ago, at 05:30 UTC
Forecast valid from 19 at 06 UTC to 20 at 06 UTC
Wind 2 kt from variable directions
Visibility 10 km or more
Scattered clouds at a height of 2500 ft
Broken clouds at a height of 4000 ft
Temporary
from 19 at 06 UTC to 19 at 09 UTC
Visibility: 5000 m
mist
Probability 30% :
Temporary
from 19 at 11 UTC to 19 at 18 UTC
Scattered clouds at a height of 2500 ft
Broken clouds at a height of 4000 ft
rain, snow

TAF: LWOH 190530Z 1906/2006 VRB02KT 9999 SCT025 BKN040 TEMPO 1906/1909 5000 BR PROB30 TEMPO 1911/1918 RASN SCT025 BKN040

Weather observations and forecasts of more than 4000 airports (METAR and TAF reports).

The available stations are represented by yellow and red dots on the map.

Hover mouse over dot to see the name of the station.

Then click to see weather observations and forecasts.

To change the map : click on the green buttons with a black cross to zoom in, on the green button with a dash to zoom out, or on the green arrows for adjacent maps.


METAR-TAF: